createdAt,value
2023-02-04T00:00:22.423Z,7.72
2023-02-04T00:01:22.471Z,7.72
2023-02-04T00:02:22.506Z,7.64
2023-02-04T00:03:22.461Z,7.7
2023-02-04T00:04:22.412Z,7.75
2023-02-04T00:05:22.451Z,7.75
2023-02-04T00:06:25.280Z,7.62
2023-02-04T00:07:22.427Z,7.74
2023-02-04T00:08:22.450Z,7.74
2023-02-04T00:09:22.447Z,7.74
2023-02-04T00:10:22.421Z,7.77
2023-02-04T00:11:22.555Z,7.66
2023-02-04T00:12:22.452Z,7.7
2023-02-04T00:13:22.417Z,7.66
2023-02-04T00:14:22.443Z,7.69
2023-02-04T00:15:22.484Z,7.69
2023-02-04T00:16:22.726Z,7.72
2023-02-04T00:17:25.323Z,7.72
2023-02-04T00:18:24.347Z,7.69
2023-02-04T00:19:22.437Z,7.7
2023-02-04T00:20:22.462Z,7.81
2023-02-04T00:21:22.508Z,7.81
2023-02-04T00:22:22.442Z,7.77
2023-02-04T00:23:23.454Z,7.74
2023-02-04T00:24:22.437Z,7.74
2023-02-04T00:25:22.432Z,7.75
2023-02-04T00:26:22.507Z,7.78
2023-02-04T00:27:22.497Z,7.84
2023-02-04T00:28:25.378Z,7.74
2023-02-04T00:29:22.444Z,7.8
2023-02-04T00:30:22.459Z,7.75
2023-02-04T00:31:22.842Z,7.66
2023-02-04T00:32:22.707Z,7.8
2023-02-04T00:33:22.484Z,7.7
2023-02-04T00:34:22.757Z,7.8
2023-02-04T00:35:22.456Z,7.67
2023-02-04T00:36:22.469Z,7.7
2023-02-04T00:37:22.463Z,7.81
2023-02-04T00:38:22.468Z,7.69
2023-02-04T00:39:25.605Z,7.8
2023-02-04T00:40:22.474Z,7.81
2023-02-04T00:41:22.492Z,7.8
2023-02-04T00:42:22.459Z,7.81
2023-02-04T00:43:22.525Z,7.87
2023-02-04T00:44:25.532Z,7.8
2023-02-04T00:45:22.509Z,7.81
2023-02-04T00:46:22.506Z,7.72
2023-02-04T00:47:22.568Z,7.8
2023-02-04T00:48:22.489Z,7.77
2023-02-04T00:49:22.546Z,7.77
2023-02-04T00:50:25.336Z,7.69
2023-02-04T00:51:22.499Z,7.83
2023-02-04T00:52:22.476Z,7.74
2023-02-04T00:53:22.479Z,7.75
2023-02-04T00:54:22.504Z,7.75
2023-02-04T00:55:25.390Z,7.72
2023-02-04T00:56:22.525Z,7.72
2023-02-04T00:57:22.500Z,7.67
2023-02-04T00:58:22.501Z,7.67
2023-02-04T00:59:22.492Z,7.74
2023-02-04T01:00:22.491Z,7.66
2023-02-04T01:01:25.451Z,7.77
2023-02-04T01:02:23.341Z,7.78
2023-02-04T01:03:22.598Z,7.72
2023-02-04T01:04:22.655Z,7.69
2023-02-04T01:05:22.590Z,7.7
2023-02-04T01:06:24.227Z,7.66
2023-02-04T01:07:22.669Z,7.7
2023-02-04T01:08:22.514Z,7.64
2023-02-04T01:09:22.491Z,7.7
2023-02-04T01:10:22.950Z,7.72
2023-02-04T01:11:22.869Z,7.64
2023-02-04T01:12:22.810Z,7.66
2023-02-04T01:13:22.520Z,7.64
2023-02-04T01:14:22.508Z,7.67
2023-02-04T01:15:22.526Z,7.7
2023-02-04T01:16:22.710Z,7.59
2023-02-04T01:17:22.535Z,7.62
2023-02-04T01:18:22.524Z,7.59
2023-02-04T01:19:22.562Z,7.66
2023-02-04T01:20:22.510Z,7.59
2023-02-04T01:21:22.594Z,7.47
2023-02-04T01:22:22.521Z,7.56
2023-02-04T01:23:22.538Z,7.66
2023-02-04T01:24:22.537Z,7.67
2023-02-04T01:25:23.552Z,7.59
2023-02-04T01:26:22.635Z,7.56
2023-02-04T01:27:22.543Z,7.61
2023-02-04T01:28:22.657Z,7.55
2023-02-04T01:29:22.551Z,7.48
2023-02-04T01:30:22.564Z,7.47
2023-02-04T01:31:23.280Z,7.58
2023-02-04T01:32:22.553Z,7.53
2023-02-04T01:33:25.621Z,7.41
2023-02-04T01:34:22.593Z,7.51
2023-02-04T01:35:22.635Z,7.51
2023-02-04T01:36:22.547Z,7.55
2023-02-04T01:37:22.578Z,7.48
2023-02-04T01:38:22.548Z,7.51
2023-02-04T01:39:22.541Z,7.46
2023-02-04T01:40:22.549Z,7.5
2023-02-04T01:41:22.588Z,7.5
2023-02-04T01:42:22.547Z,7.46
2023-02-04T01:43:22.565Z,7.5
2023-02-04T01:44:25.309Z,7.46
2023-02-04T01:45:25.323Z,7.47
2023-02-04T01:46:22.711Z,7.56
2023-02-04T01:47:22.585Z,7.43
2023-02-04T01:48:22.692Z,7.43
2023-02-04T01:49:25.595Z,7.47
2023-02-04T01:50:22.611Z,7.5
2023-02-04T01:51:22.613Z,7.4
2023-02-04T01:52:22.564Z,7.43
2023-02-04T01:53:22.576Z,7.47
2023-02-04T01:54:22.577Z,7.44
2023-02-04T01:55:22.576Z,7.44
2023-02-04T01:56:22.602Z,7.46
2023-02-04T01:57:22.560Z,7.47
2023-02-04T01:58:22.586Z,7.4
2023-02-04T01:59:22.562Z,7.36
2023-02-04T02:00:25.525Z,7.44
2023-02-04T02:01:22.755Z,7.43
2023-02-04T02:02:22.710Z,7.4
2023-02-04T02:03:22.603Z,7.43
2023-02-04T02:04:22.573Z,7.46
2023-02-04T02:05:22.611Z,7.37
2023-02-04T02:06:22.563Z,7.47
2023-02-04T02:07:22.625Z,7.37
2023-02-04T02:08:22.583Z,7.44
2023-02-04T02:09:22.615Z,7.47
2023-02-04T02:10:25.581Z,7.43
2023-02-04T02:11:25.454Z,7.41
2023-02-04T02:12:22.606Z,7.39
2023-02-04T02:13:22.735Z,7.28
2023-02-04T02:14:22.607Z,7.31
2023-02-04T02:15:22.583Z,7.31
2023-02-04T02:16:22.685Z,7.43
2023-02-04T02:17:22.614Z,7.36
2023-02-04T02:18:22.581Z,7.37
2023-02-04T02:19:22.610Z,7.31
2023-02-04T02:20:22.619Z,7.29
2023-02-04T02:21:22.437Z,7.36
2023-02-04T02:22:25.798Z,7.44
2023-02-04T02:23:22.640Z,7.31
2023-02-04T02:24:22.606Z,7.32
2023-02-04T02:25:22.650Z,7.36
2023-02-04T02:26:22.610Z,7.33
2023-02-04T02:27:22.627Z,7.25
2023-02-04T02:28:22.778Z,7.31
2023-02-04T02:29:22.619Z,7.29
2023-02-04T02:30:22.602Z,7.18
2023-02-04T02:31:23.124Z,7.22
2023-02-04T02:32:22.622Z,7.21
2023-02-04T02:33:25.363Z,7.18
2023-02-04T02:34:23.107Z,7.15
2023-02-04T02:35:22.613Z,7.19
2023-02-04T02:36:22.625Z,7.18
2023-02-04T02:37:22.659Z,7.22
2023-02-04T02:38:22.677Z,7.18
2023-02-04T02:39:22.626Z,7.18
2023-02-04T02:40:22.639Z,7.23
2023-02-04T02:41:22.645Z,7.14
2023-02-04T02:42:22.637Z,7.15
2023-02-04T02:43:22.626Z,7.07
2023-02-04T02:44:25.417Z,7.19
2023-02-04T02:45:22.624Z,7.19
2023-02-04T02:46:22.762Z,7.23
2023-02-04T02:47:22.692Z,7.23
2023-02-04T02:48:22.639Z,7.14
2023-02-04T02:49:22.648Z,7.15
2023-02-04T02:50:22.624Z,7.22
2023-02-04T02:51:22.628Z,7.19
2023-02-04T02:52:22.643Z,7.19
2023-02-04T02:53:22.644Z,7.18
2023-02-04T02:54:22.697Z,7.15
2023-02-04T02:55:25.497Z,7.1
2023-02-04T02:56:22.626Z,7.07
2023-02-04T02:57:22.692Z,7.08
2023-02-04T02:58:22.630Z,7
2023-02-04T02:59:22.652Z,7.04
2023-02-04T03:00:22.646Z,6.96
2023-02-04T03:01:22.738Z,7.11
2023-02-04T03:02:22.756Z,7.07
2023-02-04T03:03:22.855Z,6.93
2023-02-04T03:04:22.680Z,7.04
2023-02-04T03:05:22.663Z,6.97
2023-02-04T03:06:25.743Z,6.95
2023-02-04T03:07:22.670Z,6.96
2023-02-04T03:08:22.680Z,6.95
2023-02-04T03:09:22.643Z,6.97
2023-02-04T03:10:22.720Z,6.96
2023-02-04T03:11:25.713Z,6.93
2023-02-04T03:12:22.688Z,6.93
2023-02-04T03:13:22.680Z,6.89
2023-02-04T03:14:22.644Z,6.89
2023-02-04T03:15:22.679Z,6.96
2023-02-04T03:16:22.674Z,6.87
2023-02-04T03:17:25.709Z,6.87
2023-02-04T03:18:22.693Z,6.92
2023-02-04T03:19:22.682Z,6.95
2023-02-04T03:20:22.674Z,6.86
2023-02-04T03:21:22.696Z,6.86
2023-02-04T03:22:24.263Z,6.82
2023-02-04T03:23:22.720Z,6.87
2023-02-04T03:24:22.715Z,6.85
2023-02-04T03:25:22.680Z,6.82
2023-02-04T03:26:22.869Z,6.85
2023-02-04T03:27:22.678Z,6.87
2023-02-04T03:28:25.800Z,6.92
2023-02-04T03:29:22.691Z,6.83
2023-02-04T03:30:22.692Z,6.85
2023-02-04T03:31:23.015Z,6.82
2023-02-04T03:32:22.683Z,6.85
2023-02-04T03:33:25.459Z,6.82
2023-02-04T03:34:22.668Z,6.87
2023-02-04T03:35:22.694Z,6.87
2023-02-04T03:36:22.679Z,6.89
2023-02-04T03:37:22.712Z,6.89
2023-02-04T03:38:24.564Z,6.86
2023-02-04T03:39:22.677Z,6.77
2023-02-04T03:40:22.694Z,6.96
2023-02-04T03:41:22.691Z,6.92
2023-02-04T03:42:22.778Z,6.92
2023-02-04T03:43:22.683Z,6.85
2023-02-04T03:44:22.687Z,6.85
2023-02-04T03:45:22.724Z,6.85
2023-02-04T03:46:22.786Z,6.83
2023-02-04T03:47:22.787Z,6.89
2023-02-04T03:48:22.694Z,6.9
2023-02-04T03:49:22.706Z,6.85
2023-02-04T03:50:22.698Z,6.82
2023-02-04T03:51:22.694Z,6.89
2023-02-04T03:52:22.739Z,6.83
2023-02-04T03:53:22.719Z,6.8
2023-02-04T03:54:22.711Z,6.83
2023-02-04T03:55:22.718Z,6.83
2023-02-04T03:56:22.702Z,6.8
2023-02-04T03:57:22.777Z,6.75
2023-02-04T03:58:22.751Z,6.72
2023-02-04T03:59:22.708Z,6.86
2023-02-04T04:00:25.475Z,6.72
2023-02-04T04:01:22.857Z,6.82
2023-02-04T04:02:22.811Z,6.82
2023-02-04T04:03:22.716Z,6.82
2023-02-04T04:04:22.706Z,6.87
2023-02-04T04:05:22.733Z,6.78
2023-02-04T04:06:22.747Z,6.85
2023-02-04T04:07:22.733Z,6.83
2023-02-04T04:08:22.703Z,6.85
2023-02-04T04:09:22.727Z,6.85
2023-02-04T04:10:22.722Z,6.75
2023-02-04T04:11:22.756Z,6.75
2023-02-04T04:12:22.740Z,6.78
2023-02-04T04:13:22.712Z,6.83
2023-02-04T04:14:22.799Z,6.78
2023-02-04T04:15:22.706Z,6.75
2023-02-04T04:16:25.823Z,6.72
2023-02-04T04:17:22.739Z,6.78
2023-02-04T04:18:22.735Z,6.77
2023-02-04T04:19:22.735Z,6.67
2023-02-04T04:20:22.732Z,6.62
2023-02-04T04:21:22.745Z,6.54
2023-02-04T04:22:22.783Z,6.6
2023-02-04T04:23:22.738Z,6.59
2023-02-04T04:24:22.908Z,6.54
2023-02-04T04:25:22.736Z,6.54
2023-02-04T04:26:22.809Z,6.57
2023-02-04T04:27:25.677Z,6.49
2023-02-04T04:28:22.820Z,6.54
2023-02-04T04:29:22.763Z,6.5
2023-02-04T04:30:22.779Z,6.47
2023-02-04T04:31:23.264Z,6.49
2023-02-04T04:32:22.772Z,6.52
2023-02-04T04:33:22.744Z,6.54
2023-02-04T04:34:22.782Z,6.38
2023-02-04T04:35:22.963Z,6.34
2023-02-04T04:36:22.752Z,6.44
2023-02-04T04:37:22.788Z,6.39
2023-02-04T04:38:25.656Z,6.36
2023-02-04T04:39:22.775Z,6.46
2023-02-04T04:40:22.788Z,6.41
2023-02-04T04:41:22.748Z,6.43
2023-02-04T04:42:22.814Z,6.39
2023-02-04T04:43:22.746Z,6.38
2023-02-04T04:44:22.793Z,6.38
2023-02-04T04:45:22.774Z,6.41
2023-02-04T04:46:23.010Z,6.39
2023-02-04T04:47:23.694Z,6.53
2023-02-04T04:48:22.870Z,6.44
2023-02-04T04:49:25.574Z,6.52
2023-02-04T04:50:22.763Z,6.56
2023-02-04T04:51:22.802Z,6.47
2023-02-04T04:52:22.790Z,6.6
2023-02-04T04:53:22.761Z,6.52
2023-02-04T04:54:22.836Z,6.6
2023-02-04T04:55:22.776Z,6.54
2023-02-04T04:56:22.825Z,6.49
2023-02-04T04:57:22.805Z,6.5
2023-02-04T04:58:22.786Z,6.52
2023-02-04T04:59:22.755Z,6.5
2023-02-04T05:00:25.691Z,6.5
2023-02-04T05:01:23.066Z,6.53
2023-02-04T05:02:22.898Z,6.52
2023-02-04T05:03:22.777Z,6.57
2023-02-04T05:04:23.219Z,6.59
2023-02-04T05:05:22.812Z,6.52
2023-02-04T05:06:22.800Z,6.59
2023-02-04T05:07:22.813Z,6.53
2023-02-04T05:08:22.815Z,6.56
2023-02-04T05:09:22.773Z,6.57
2023-02-04T05:10:22.799Z,6.53
2023-02-04T05:11:25.874Z,6.53
2023-02-04T05:12:22.829Z,6.62
2023-02-04T05:13:22.823Z,6.54
2023-02-04T05:14:22.804Z,6.59
2023-02-04T05:15:22.797Z,6.53
2023-02-04T05:16:23.081Z,6.56
2023-02-04T05:17:22.840Z,6.5
2023-02-04T05:18:22.843Z,6.57
2023-02-04T05:19:22.803Z,6.54
2023-02-04T05:20:22.822Z,6.54
2023-02-04T05:21:22.899Z,6.59
2023-02-04T05:22:25.881Z,6.6
2023-02-04T05:23:22.821Z,6.54
2023-02-04T05:24:22.822Z,6.52
2023-02-04T05:25:22.817Z,6.52
2023-02-04T05:26:34.405Z,6.56
2023-02-04T05:27:22.841Z,6.57
2023-02-04T05:28:23.015Z,6.59
2023-02-04T05:29:22.838Z,6.56
2023-02-04T05:30:22.817Z,6.53
2023-02-04T05:31:23.345Z,6.64
2023-02-04T05:32:22.808Z,6.62
2023-02-04T05:33:25.969Z,6.62
2023-02-04T05:34:22.837Z,6.57
2023-02-04T05:35:22.841Z,6.54
2023-02-04T05:36:22.882Z,6.54
2023-02-04T05:37:22.826Z,6.6
2023-02-04T05:38:23.042Z,6.57
2023-02-04T05:39:22.837Z,6.56
2023-02-04T05:40:22.843Z,6.47
2023-02-04T05:41:22.832Z,6.54
2023-02-04T05:42:22.851Z,6.52
2023-02-04T05:43:22.821Z,6.38
2023-02-04T05:44:27.423Z,6.43
2023-02-04T05:45:22.890Z,6.36
2023-02-04T05:46:22.891Z,6.41
2023-02-04T05:47:22.921Z,6.32
2023-02-04T05:49:25.948Z,6.29
2023-02-04T05:50:22.882Z,6.34
2023-02-04T05:51:22.851Z,6.26
2023-02-04T05:52:22.860Z,6.36
2023-02-04T05:53:23.348Z,6.26
2023-02-04T05:54:22.910Z,6.19
2023-02-04T05:55:25.642Z,6.25
2023-02-04T05:56:22.856Z,6.16
2023-02-04T05:57:22.847Z,6.22
2023-02-04T05:58:22.857Z,6.16
2023-02-04T05:59:22.843Z,6.13
2023-02-04T06:00:25.905Z,6.07
2023-02-04T06:01:22.923Z,6.13
2023-02-04T06:02:22.859Z,6.19
2023-02-04T06:03:23.040Z,6.1
2023-02-04T06:04:23.270Z,6.02
2023-02-04T06:05:22.961Z,6.12
2023-02-04T06:06:22.881Z,6.06
2023-02-04T06:07:22.866Z,5.99
2023-02-04T06:08:22.893Z,6.01
2023-02-04T06:09:22.896Z,6.1
2023-02-04T06:10:22.863Z,5.98
2023-02-04T06:11:22.882Z,6.05
2023-02-04T06:12:22.882Z,5.99
2023-02-04T06:13:22.885Z,5.99
2023-02-04T06:14:22.879Z,5.97
2023-02-04T06:15:22.865Z,5.95
2023-02-04T06:16:22.989Z,5.94
2023-02-04T06:17:23.057Z,6.02
2023-02-04T06:18:22.889Z,6.01
2023-02-04T06:19:22.883Z,5.97
2023-02-04T06:20:22.872Z,5.92
2023-02-04T06:21:22.956Z,6.02
2023-02-04T06:22:22.915Z,5.91
2023-02-04T06:23:22.911Z,5.88
2023-02-04T06:24:22.931Z,5.84
2023-02-04T06:25:22.893Z,5.95
2023-02-04T06:26:22.985Z,5.98
2023-02-04T06:27:25.785Z,5.92
2023-02-04T06:28:23.019Z,5.98
2023-02-04T06:29:22.950Z,5.99
2023-02-04T06:30:22.965Z,6.01
2023-02-04T06:31:24.511Z,5.94
2023-02-04T06:32:22.931Z,5.9
2023-02-04T06:33:22.921Z,5.9
2023-02-04T06:34:22.914Z,5.98
2023-02-04T06:35:22.891Z,5.95
2023-02-04T06:36:22.907Z,5.98
2023-02-04T06:37:24.450Z,5.73
2023-02-04T06:38:22.926Z,5.7
2023-02-04T06:39:22.910Z,5.58
2023-02-04T06:40:22.942Z,5.54
2023-02-04T06:41:22.953Z,5.43
2023-02-04T06:42:22.967Z,5.41
2023-02-04T06:43:26.318Z,5.36
2023-02-04T06:44:22.910Z,5.25
2023-02-04T06:45:22.912Z,5.2
2023-02-04T06:46:23.104Z,5.13
2023-02-04T06:47:22.927Z,4.86
2023-02-04T06:48:23.022Z,5.01
2023-02-04T06:49:22.927Z,4.97
2023-02-04T06:50:22.916Z,5.13
2023-02-04T06:51:22.939Z,4.95
2023-02-04T06:52:22.932Z,4.89
2023-02-04T06:53:22.999Z,5
2023-02-04T06:54:25.961Z,4.98
2023-02-04T06:55:22.987Z,4.86
2023-02-04T06:56:22.990Z,4.94
2023-02-04T06:57:22.934Z,4.94
2023-02-04T06:58:22.971Z,4.92
2023-02-04T06:59:22.944Z,5.01
2023-02-04T07:00:22.926Z,5.1
2023-02-04T07:01:23.080Z,5.04
2023-02-04T07:02:23.062Z,5.16
2023-02-04T07:03:24.030Z,5.04
2023-02-04T07:04:22.963Z,5.1
2023-02-04T07:05:26.025Z,5.05
2023-02-04T07:06:22.978Z,5.07
2023-02-04T07:07:22.951Z,5.04
2023-02-04T07:08:22.971Z,5.05
2023-02-04T07:09:23.014Z,5.05
2023-02-04T07:10:22.951Z,5.07
2023-02-04T07:11:22.997Z,5.13
2023-02-04T07:12:23.045Z,5.12
2023-02-04T07:13:22.979Z,5.07
2023-02-04T07:14:23.161Z,5.13
2023-02-04T07:15:22.990Z,5.12
2023-02-04T07:16:26.103Z,5.07
2023-02-04T07:17:22.972Z,5.2
2023-02-04T07:18:22.996Z,5.18
2023-02-04T07:19:25.465Z,5.07
2023-02-04T07:20:22.974Z,5.12
2023-02-04T07:21:23.016Z,5.16
2023-02-04T07:22:22.983Z,5.13
2023-02-04T07:23:23.014Z,5.18
2023-02-04T07:24:22.992Z,5.15
2023-02-04T07:25:23.088Z,5.13
2023-02-04T07:26:22.986Z,5.12
2023-02-04T07:27:26.009Z,5.12
2023-02-04T07:28:23.120Z,5.19
2023-02-04T07:29:29.980Z,5.15
2023-02-04T07:30:23.016Z,5.13
2023-02-04T07:31:23.417Z,5.18
2023-02-04T07:32:23.005Z,5.12
2023-02-04T07:33:23.005Z,5.07
2023-02-04T07:34:23.022Z,5.15
2023-02-04T07:35:23.017Z,5.16
2023-02-04T07:36:23.082Z,5.2
2023-02-04T07:37:22.993Z,5.15
2023-02-04T07:38:26.100Z,5.12
2023-02-04T07:39:23.010Z,5.12
2023-02-04T07:40:23.005Z,5.19
2023-02-04T07:41:23.397Z,5.16
2023-02-04T07:42:23.100Z,5.19
2023-02-04T07:43:23.040Z,5.22
2023-02-04T07:44:23.036Z,5.22
2023-02-04T07:45:23.015Z,5.16
2023-02-04T07:46:23.250Z,5.2
2023-02-04T07:47:23.047Z,5.23
2023-02-04T07:48:23.029Z,5.23
2023-02-04T07:49:25.919Z,5.26
2023-02-04T07:50:24.048Z,5.31
2023-02-04T07:51:23.030Z,5.31
2023-02-04T07:52:23.035Z,5.34
2023-02-04T07:53:23.016Z,5.34
2023-02-04T07:54:23.234Z,5.34
2023-02-04T07:55:23.042Z,5.37
2023-02-04T07:56:23.012Z,5.34
2023-02-04T07:57:25.002Z,5.46
2023-02-04T07:58:23.028Z,5.44
2023-02-04T07:59:23.058Z,5.59
2023-02-04T08:00:26.084Z,5.46
2023-02-04T08:01:23.140Z,5.51
2023-02-04T08:02:23.093Z,5.51
2023-02-04T08:03:23.021Z,5.55
2023-02-04T08:04:23.053Z,5.58
2023-02-04T08:05:25.832Z,5.65
2023-02-04T08:06:23.079Z,5.64
2023-02-04T08:07:23.030Z,5.72
2023-02-04T08:08:23.054Z,5.74
2023-02-04T08:09:23.065Z,5.62
2023-02-04T08:10:23.026Z,5.72
2023-02-04T08:11:25.790Z,5.84
2023-02-04T08:12:24.045Z,5.79
2023-02-04T08:13:23.083Z,5.81
2023-02-04T08:14:23.052Z,5.73
2023-02-04T08:15:23.029Z,5.79
2023-02-04T08:16:26.208Z,5.73
2023-02-04T08:17:23.053Z,5.8
2023-02-04T08:18:23.049Z,5.83
2023-02-04T08:19:23.062Z,5.94
2023-02-04T08:20:23.060Z,5.9
2023-02-04T08:21:24.204Z,5.87
2023-02-04T08:22:25.989Z,5.88
2023-02-04T08:23:23.080Z,5.97
2023-02-04T08:24:23.101Z,5.97
2023-02-04T08:25:23.061Z,5.9
2023-02-04T08:26:23.075Z,6.06
2023-02-04T08:27:26.161Z,5.98
2023-02-04T08:28:23.226Z,5.98
2023-02-04T08:29:23.151Z,6.13
2023-02-04T08:30:23.062Z,6.1
2023-02-04T08:31:23.623Z,6.09
2023-02-04T08:32:23.085Z,6.16
2023-02-04T08:33:23.071Z,6.1
2023-02-04T08:34:23.086Z,6.13
2023-02-04T08:35:23.073Z,6.16
2023-02-04T08:36:23.074Z,6.16
2023-02-04T08:37:23.057Z,6.2
2023-02-04T08:38:23.779Z,6.19
2023-02-04T08:39:23.125Z,6.25
2023-02-04T08:40:25.066Z,6.13
2023-02-04T08:41:23.070Z,6.28
2023-02-04T08:42:23.082Z,6.06
2023-02-04T08:43:23.077Z,6.13
2023-02-04T08:44:23.122Z,6.07
2023-02-04T08:45:23.230Z,6.12
2023-02-04T08:46:23.260Z,6.13
2023-02-04T08:47:23.094Z,6.02
2023-02-04T08:48:23.129Z,6.07
2023-02-04T08:49:23.241Z,6.1
2023-02-04T08:50:23.093Z,6.09
2023-02-04T08:51:23.103Z,6.12
2023-02-04T08:52:23.111Z,6.2
2023-02-04T08:53:23.115Z,6.19
2023-02-04T08:54:26.362Z,6.29
2023-02-04T08:55:23.123Z,6.25
2023-02-04T08:56:23.130Z,6.34
2023-02-04T08:57:23.125Z,6.25
2023-02-04T08:58:23.136Z,6.31
2023-02-04T08:59:23.142Z,6.34
2023-02-04T09:00:24.275Z,6.35
2023-02-04T09:01:23.361Z,6.34
2023-02-04T09:02:23.371Z,6.38
2023-02-04T09:03:22.976Z,6.38
2023-02-04T09:04:23.183Z,6.36
2023-02-04T09:05:26.031Z,6.28
2023-02-04T09:06:23.144Z,6.32
2023-02-04T09:07:23.167Z,6.54
2023-02-04T09:08:23.203Z,6.52
2023-02-04T09:09:28.692Z,6.52
2023-02-04T09:10:26.089Z,6.29
2023-02-04T09:11:23.184Z,6.31
2023-02-04T09:12:23.198Z,6.53
2023-02-04T09:13:23.195Z,6.59
2023-02-04T09:14:23.182Z,6.47
2023-02-04T09:15:23.156Z,6.5
2023-02-04T09:16:26.540Z,6.59
2023-02-04T09:17:23.198Z,6.44
2023-02-04T09:18:23.188Z,6.59
2023-02-04T09:19:23.204Z,6.54
2023-02-04T09:20:23.270Z,6.6
2023-02-04T09:21:26.266Z,6.56
2023-02-04T09:22:23.166Z,6.38
2023-02-04T09:23:23.189Z,6.25
2023-02-04T09:24:23.217Z,6.43
2023-02-04T09:25:23.190Z,6.52
2023-02-04T09:26:23.175Z,6.56
2023-02-04T09:27:23.184Z,6.59
2023-02-04T09:28:23.344Z,6.57
2023-02-04T09:29:23.198Z,6.56
2023-02-04T09:30:23.216Z,6.47
2023-02-04T09:31:23.661Z,6.59
2023-02-04T09:32:26.272Z,6.56
2023-02-04T09:33:23.180Z,6.62
2023-02-04T09:34:23.223Z,6.65
2023-02-04T09:35:23.188Z,6.56
2023-02-04T09:36:23.233Z,6.59
2023-02-04T09:37:23.184Z,6.64
2023-02-04T09:38:23.184Z,6.78
2023-02-04T09:39:23.220Z,6.75
2023-02-04T09:40:23.389Z,6.86
2023-02-04T09:41:23.199Z,6.8
2023-02-04T09:42:23.214Z,6.82
2023-02-04T09:43:26.333Z,6.75
2023-02-04T09:44:23.251Z,6.83
2023-02-04T09:45:23.198Z,6.9
2023-02-04T09:46:23.272Z,7.04
2023-02-04T09:47:23.320Z,6.77
2023-02-04T09:48:23.240Z,6.85
2023-02-04T09:49:23.237Z,6.8
2023-02-04T09:50:23.249Z,6.95
2023-02-04T09:51:23.225Z,7
2023-02-04T09:52:23.260Z,6.95
2023-02-04T09:53:23.227Z,6.92
2023-02-04T09:54:26.192Z,6.85
2023-02-04T09:55:23.215Z,7.03
2023-02-04T09:56:23.238Z,6.92
2023-02-04T09:57:23.217Z,6.9
2023-02-04T09:58:23.247Z,6.85
2023-02-04T09:59:23.230Z,6.96
2023-02-04T10:00:23.278Z,6.72
2023-02-04T10:01:23.652Z,6.83
2023-02-04T10:02:23.242Z,6.83
2023-02-04T10:03:23.258Z,6.87
2023-02-04T10:04:26.607Z,6.95
2023-02-04T10:05:26.261Z,6.97
2023-02-04T10:06:23.229Z,7.07
2023-02-04T10:07:23.215Z,6.9
2023-02-04T10:08:23.269Z,7.05
2023-02-04T10:09:23.262Z,6.92
2023-02-04T10:10:23.258Z,6.87
2023-02-04T10:11:23.209Z,6.97
2023-02-04T10:12:23.246Z,7.07
2023-02-04T10:13:23.217Z,7.11
2023-02-04T10:14:23.304Z,7.21
2023-02-04T10:15:24.277Z,7.19
2023-02-04T10:16:23.525Z,7.18
2023-02-04T10:17:25.932Z,7.13
2023-02-04T10:18:23.232Z,7.01
2023-02-04T10:19:23.246Z,6.97
2023-02-04T10:20:23.351Z,7.03
2023-02-04T10:21:23.252Z,7.03
2023-02-04T10:22:23.226Z,7.11
2023-02-04T10:23:23.220Z,7.15
2023-02-04T10:24:23.283Z,7.07
2023-02-04T10:25:23.254Z,7.04
2023-02-04T10:26:23.238Z,7.08
2023-02-04T10:27:26.101Z,7.23
2023-02-04T10:28:23.299Z,7.14
2023-02-04T10:29:23.285Z,6.97
2023-02-04T10:30:23.328Z,7.05
2023-02-04T10:31:23.708Z,7.03
2023-02-04T10:32:23.237Z,7.04
2023-02-04T10:33:23.224Z,7.04
2023-02-04T10:34:23.843Z,7.13
2023-02-04T10:35:23.242Z,6.92
2023-02-04T10:36:23.282Z,6.82
2023-02-04T10:37:23.257Z,6.89
2023-02-04T10:38:26.348Z,6.87
2023-02-04T10:39:23.299Z,6.89
2023-02-04T10:40:23.322Z,7.01
2023-02-04T10:41:23.252Z,7
2023-02-04T10:42:23.272Z,7.08
2023-02-04T10:43:25.949Z,7.05
2023-02-04T10:44:23.268Z,7.18
2023-02-04T10:45:23.276Z,7.29
2023-02-04T10:46:23.440Z,7.31
2023-02-04T10:47:23.270Z,7.43
2023-02-04T10:48:23.266Z,7.5
2023-02-04T10:49:26.055Z,7.55
2023-02-04T10:50:23.377Z,7.58
2023-02-04T10:51:23.260Z,7.58
2023-02-04T10:52:23.307Z,7.5
2023-02-04T10:53:23.298Z,7.4
2023-02-04T10:54:24.398Z,7.43
2023-02-04T10:55:23.307Z,7.48
2023-02-04T10:56:23.294Z,7.44
2023-02-04T10:57:26.170Z,7.43
2023-02-04T10:58:23.298Z,7.41
2023-02-04T10:59:23.299Z,7.18
2023-02-04T11:00:23.419Z,7.31
2023-02-04T11:01:23.505Z,7.47
2023-02-04T11:02:24.292Z,7.48
2023-02-04T11:03:23.487Z,7.56
2023-02-04T11:04:23.309Z,7.53
2023-02-04T11:05:23.305Z,7.51
2023-02-04T11:06:23.282Z,7.53
2023-02-04T11:07:23.329Z,7.67
2023-02-04T11:08:23.318Z,7.5
2023-02-04T11:09:23.310Z,7.53
2023-02-04T11:10:23.305Z,7.33
2023-02-04T11:11:23.280Z,7.39
2023-02-04T11:12:23.319Z,7.47
2023-02-04T11:13:23.309Z,7.4
2023-02-04T11:14:23.323Z,7.43
2023-02-04T11:15:23.292Z,7.39
2023-02-04T11:16:23.783Z,7.41
2023-02-04T11:17:23.310Z,7.33
2023-02-04T11:18:23.519Z,7.41
2023-02-04T11:19:23.361Z,7.46
2023-02-04T11:20:23.302Z,7.47
2023-02-04T11:21:26.793Z,7.51
2023-02-04T11:22:23.307Z,7.39
2023-02-04T11:23:23.346Z,7.39
2023-02-04T11:24:23.384Z,7.25
2023-02-04T11:25:23.328Z,7.29
2023-02-04T11:26:23.350Z,7.44
2023-02-04T11:27:23.365Z,7.31
2023-02-04T11:28:23.407Z,7.32
2023-02-04T11:29:23.329Z,7.31
2023-02-04T11:30:23.345Z,7.37
2023-02-04T11:31:23.837Z,7.4
2023-02-04T11:32:28.937Z,7.29
2023-02-04T11:33:23.351Z,7.26
2023-02-04T11:34:23.353Z,7.36
2023-02-04T11:35:23.316Z,7.44
2023-02-04T11:36:23.318Z,7.44
2023-02-04T11:37:26.355Z,7.43
2023-02-04T11:38:23.345Z,7.43
2023-02-04T11:39:23.353Z,7.37
2023-02-04T11:40:23.522Z,7.4
2023-02-04T11:41:23.316Z,7.37
2023-02-04T11:42:23.336Z,7.32
2023-02-04T11:43:29.519Z,7.32
2023-02-04T11:44:23.365Z,7.31
2023-02-04T11:45:23.395Z,7.43
2023-02-04T11:46:23.491Z,7.33
2023-02-04T11:47:23.342Z,7.32
2023-02-04T11:48:26.138Z,7.37
2023-02-04T11:49:23.367Z,7.4
2023-02-04T11:50:23.344Z,7.41
2023-02-04T11:51:23.427Z,7.46
2023-02-04T11:52:23.339Z,7.43
2023-02-04T11:53:23.338Z,7.44
2023-02-04T11:54:23.388Z,7.46
2023-02-04T11:55:23.330Z,7.44
2023-02-04T11:56:23.404Z,7.41
2023-02-04T11:57:23.358Z,7.43
2023-02-04T11:58:23.343Z,7.47
2023-02-04T11:59:24.135Z,7.55
2023-02-04T12:00:23.386Z,7.56
2023-02-04T12:01:23.627Z,7.51
2023-02-04T12:02:23.511Z,7.47
2023-02-04T12:03:23.551Z,7.4
2023-02-04T12:04:23.415Z,7.44
2023-02-04T12:05:23.373Z,7.37
2023-02-04T12:06:23.535Z,7.41
2023-02-04T12:07:23.384Z,7.33
2023-02-04T12:08:23.412Z,7.37
2023-02-04T12:09:23.379Z,7.37
2023-02-04T12:10:26.141Z,7.22
2023-02-04T12:11:23.352Z,7.22
2023-02-04T12:12:23.411Z,7.23
2023-02-04T12:13:23.613Z,7.23
2023-02-04T12:14:23.425Z,7.28
2023-02-04T12:15:23.394Z,7.29
2023-02-04T12:16:23.584Z,7.41
2023-02-04T12:17:23.442Z,7.46
2023-02-04T12:18:23.381Z,7.55
2023-02-04T12:19:23.414Z,7.5
2023-02-04T12:20:23.448Z,7.51
2023-02-04T12:21:26.412Z,7.55
2023-02-04T12:22:23.382Z,7.48
2023-02-04T12:23:23.377Z,7.46
2023-02-04T12:24:23.432Z,7.53
2023-02-04T12:25:23.375Z,7.39
2023-02-04T12:26:23.385Z,7.51
2023-02-04T12:27:23.371Z,7.46
2023-02-04T12:28:23.695Z,7.47
2023-02-04T12:29:23.405Z,7.5
2023-02-04T12:30:23.385Z,7.56
2023-02-04T12:31:23.991Z,7.64
2023-02-04T12:32:26.214Z,7.64
2023-02-04T12:33:23.393Z,7.7
2023-02-04T12:34:23.549Z,7.64
2023-02-04T12:35:23.394Z,7.72
2023-02-04T12:36:23.392Z,7.61
2023-02-04T12:37:23.405Z,7.69
2023-02-04T12:38:25.062Z,7.64
2023-02-04T12:39:23.422Z,7.69
2023-02-04T12:40:23.430Z,7.69
2023-02-04T12:41:23.404Z,7.75
2023-02-04T12:42:23.381Z,7.55
2023-02-04T12:43:28.317Z,7.67
2023-02-04T12:44:23.456Z,7.62
2023-02-04T12:45:23.412Z,7.69
2023-02-04T12:46:23.747Z,7.74
2023-02-04T12:47:23.434Z,7.75
2023-02-04T12:48:23.671Z,7.75
2023-02-04T12:49:23.444Z,7.72
2023-02-04T12:50:23.401Z,7.69
2023-02-04T12:51:23.462Z,7.72
2023-02-04T12:52:23.456Z,7.75
2023-02-04T12:53:23.441Z,7.83
2023-02-04T12:54:24.868Z,7.64
2023-02-04T12:55:23.408Z,7.7
2023-02-04T12:56:23.419Z,7.51
2023-02-04T12:57:23.436Z,7.31
2023-02-04T12:58:23.444Z,7.48
2023-02-04T12:59:23.481Z,7.56
2023-02-04T13:00:23.525Z,7.55
2023-02-04T13:01:23.593Z,7.48
2023-02-04T13:02:23.666Z,7.55
2023-02-04T13:03:23.452Z,7.5
2023-02-04T13:04:23.438Z,7.56
2023-02-04T13:05:26.188Z,7.51
2023-02-04T13:06:23.427Z,7.61
2023-02-04T13:07:23.503Z,7.53
2023-02-04T13:08:23.467Z,7.56
2023-02-04T13:09:23.431Z,7.59
2023-02-04T13:10:26.589Z,7.61
2023-02-04T13:11:23.651Z,7.53
2023-02-04T13:12:23.421Z,7.5
2023-02-04T13:13:23.531Z,7.46
2023-02-04T13:14:26.536Z,7.33
2023-02-04T13:15:23.465Z,7.36
2023-02-04T13:16:26.690Z,7.29
2023-02-04T13:17:23.436Z,7.4
2023-02-04T13:18:23.495Z,7.46
2023-02-04T13:19:23.492Z,7.62
2023-02-04T13:20:23.452Z,7.61
2023-02-04T13:21:26.424Z,7.64
2023-02-04T13:22:23.448Z,7.55